Estación Meteorológica Peña el Pijo (Robertgarden) [ 07/23/19 14:16:57 CEST ]

Fecha Hora Presion(HPa) Temp (°C) Humedad % Rocio (°C) Viento ( m/s) Direccion Lluvia 1Hora(mm) Lluvia 24H(mm) LLuvia Total(mm)
2019-Jan-16 01:01:43 1008.900 -0.8 77 -4.3         161.09
2019-Jan-16 02:04:11 1008.600 -0.7 78 -4.1         161.09
2019-Jan-16 03:01:43 1008.200 -1.4 79 -4.6         161.09
2019-Jan-16 04:01:48 1007.900 -1.8 80 -4.8         161.09
2019-Jan-16 05:01:44 1007.700 -1.9 80 -4.9         161.09
2019-Jan-16 06:01:46 1007.200 -1.8 81 -4.6         161.09
2019-Jan-16 07:01:39 1007.200 -2.5 81 -5.3         161.09
2019-Jan-16 08:01:42 1007.200 -2.4 82 -5.1         161.09
2019-Jan-16 09:01:37 1007.300 -2.2 82 -4.9         161.09
2019-Jan-16 10:01:36 1007.400 1.6 83 -1.0         161.09
2019-Jan-16 11:01:55 1007.200 9.0 67 3.2         161.09
2019-Jan-16 12:01:49 1006.700 13.1 47 2.0         161.09
2019-Jan-16 13:01:37 1005.600 14.2 40 0.8         161.09
2019-Jan-16 14:01:28 1004.800 16.1 37 1.3         161.09
2019-Jan-16 15:01:47 1004.300 15.1 37 0.4 0.5 NE     161.09
2019-Jan-16 16:01:40 1004.600 13.8 41 0.7         161.09
2019-Jan-16 17:01:33 1004.400 11.4 45 -0.2         161.09
2019-Jan-16 18:01:41 1004.600 9.0 52 -0.4         161.09
2019-Jan-16 19:01:10 1005.200 6.2 62 -0.6         161.09
2019-Jan-16 20:01:39 1005.500 4.1 67 -1.5         161.09
2019-Jan-16 21:01:47 1005.800 2.7 71 -2.0         161.09
2019-Jan-16 22:01:48 1005.800 2.8 75 -1.2         161.09
2019-Jan-16 23:01:37 1006.100 2.4 76 -1.4         161.09

Temperatura Máxima:16°    Temperatura Mínima:-2°
Presión Máxima:1008.900 Hpa    Presión Mínima:1004.300 Hpa


Volver